sim
Sign-in with your pilot id or email,
or register
Callsign
Passwort

Schedule Details

Flight Number: OEO1800
Departure: Bremen Airport (EDDW) at 11:20
Arrival: Thessaloniki International Airport (LGTS) at 14:05

Weather Information
Getting current METAR information for EDDW 211450Z 27009KT 9999 -RA BKN011 10/08 Q1024 BECMG BKN008
Getting current METAR information for LGTS 211450Z 34007KT CAVOK 16/00 Q1022 NOSIG

Schedule Frequency

Route Map